Impacts METAR Board
IDs:

KBOS - Boston/Logan Intl, MA, US

Updated at: 0500 UTC 14 Dec 2018
Potential Impact None Slight Moderate High
Time 13/17Z 13/18Z 13/19Z 13/20Z 13/21Z 13/22Z 13/23Z 14/00Z 14/01Z 14/02Z 14/03Z 14/04Z 14/05Z
Temp32 35 34 34 34 34 34 34 34 34 34 34 34
Dewpt17 19 20 21 21 20 21 21 23 23 23 23 23
Altim30.53 30.53 30.53 30.53 30.54 30.55 30.56 30.57 30.57 30.57 30.57 30.56 30.56
VIS10 10 10 10 10 10 10 10 10 10 10 10 10
CIG140 140 130 110 100 50 55 75 65 70 65 65 60
CoverBKNBKNBKNOVCOVCOVCOVCOVCOVCOVCOVCBKNBKN
FltCatVFRVFRVFRVFRVFRVFRVFRVFRVFRVFRVFRVFRVFR
WX--------------------------
WDir020901001201401501501401501701800
WSpd0 4 4 4 5 5 6 6 5 5 4 3 0
WGst-- -- -- -- -- -- -- -- -- -- -- -- --
Raw hourly METARs
KBOS 131654Z 00000KT 10SM FEW028 FEW050 BKN140 00/M08 A3053 RMK AO2 SLP338 T00001083
KBOS 131754Z 02004KT 10SM FEW030 BKN140 BKN200 02/M07 A3053 RMK AO2 SLP336 T00171072 10017 21061 58003
KBOS 131854Z 09004KT 10SM FEW030 BKN130 BKN200 01/M07 A3053 RMK AO2 SLP336 T00111067
KBOS 131954Z 10004KT 10SM FEW030 BKN110 OVC200 01/M06 A3053 RMK AO2 SLP338 T00111061
KBOS 132054Z 12005KT 10SM FEW033 BKN100 OVC200 01/M06 A3054 RMK AO2 SLP341 T00111061 53005
KBOS 132154Z 14005KT 10SM BKN050 BKN110 OVC200 01/M07 A3055 RMK AO2 SLP345 T00111067
KBOS 132254Z 15006KT 10SM BKN055 OVC200 01/M06 A3056 RMK AO2 SLP348 T00111061
KBOS 132354Z 15006KT 10SM BKN075 OVC200 01/M06 A3057 RMK AO2 SLP349 T00111061 10017 20006 51008
KBOS 140054Z 14005KT 10SM BKN065 OVC200 01/M05 A3057 RMK AO2 SLP350 T00111050
KBOS 140154Z 15005KT 10SM SCT045 BKN070 OVC200 01/M05 A3057 RMK AO2 SLP352 T00111050
KBOS 140254Z 17004KT 10SM OVC065 01/M05 A3057 RMK AO2 SLP350 T00111050 50001
KBOS 140354Z 18003KT 10SM BKN065 01/M05 A3056 RMK AO2 SLP348 T00111050
KBOS 140454Z 00000KT 10SM BKN060 01/M05 A3056 RMK AO2 SLP348 T00111050 400171061



Page loaded:  05:09 UTC  |   09:09 PM Pacific  |   10:09 PM Mountain  |   11:09 PM Central  |   12:09 AM Eastern

 

ADVISORIES

FORECASTS

FORECASTS

OBSERVATIONS

USER TOOLS

ABOUT US